createdAt,value
2023-01-03T00:00:48.952Z,65.90
2023-01-03T00:03:21.840Z,60.30
2023-01-03T00:05:54.629Z,71.97
2023-01-03T00:08:28.280Z,70.52
2023-01-03T00:11:01.784Z,103.27
2023-01-03T00:13:34.514Z,263.52
2023-01-03T00:16:07.626Z,167.13
2023-01-03T00:18:40.599Z,90.45
2023-01-03T00:21:13.842Z,93.35
2023-01-03T00:23:46.757Z,93.00
2023-01-03T00:26:20.089Z,82.37
2023-01-03T00:28:53.065Z,81.97
2023-01-03T00:31:26.257Z,86.87
2023-01-03T00:34:00.105Z,79.10
2023-01-03T00:36:33.334Z,71.80
2023-01-03T00:39:07.164Z,76.37
2023-01-03T00:41:40.801Z,82.05
2023-01-03T00:44:14.091Z,88.95
2023-01-03T00:46:47.228Z,65.08
2023-01-03T00:49:20.350Z,61.63
2023-01-03T00:51:55.062Z,46.60
2023-01-03T00:54:28.203Z,26.45
2023-01-03T00:57:01.145Z,26.60
2023-01-03T00:59:34.430Z,29.10
2023-01-03T01:02:07.224Z,28.17
2023-01-03T01:04:40.660Z,27.52
2023-01-03T01:07:14.104Z,28.65
2023-01-03T01:09:47.295Z,19.82
2023-01-03T01:12:20.180Z,16.97
2023-01-03T01:14:53.195Z,17.27
2023-01-03T01:17:28.353Z,14.63
2023-01-03T01:20:01.317Z,15.80
2023-01-03T01:22:36.562Z,16.07
2023-01-03T01:25:09.540Z,15.05
2023-01-03T01:27:43.017Z,21.52
2023-01-03T01:30:15.804Z,23.15
2023-01-03T01:32:48.903Z,16.85
2023-01-03T01:35:21.607Z,19.82
2023-01-03T01:37:54.332Z,15.72
2023-01-03T01:40:28.036Z,15.65
2023-01-03T01:43:22.801Z,16.82
2023-01-03T01:45:55.976Z,13.95
2023-01-03T01:48:28.812Z,15.63
2023-01-03T01:51:01.886Z,20.23
2023-01-03T01:53:37.032Z,14.83
2023-01-03T01:58:49.691Z,22.07
2023-01-03T02:01:24.417Z,15.75
2023-01-03T02:04:04.934Z,17.23
2023-01-03T02:06:37.568Z,16.85
2023-01-03T02:09:10.769Z,17.90
2023-01-03T02:12:17.047Z,14.45
2023-01-03T02:15:15.680Z,15.80
2023-01-03T02:18:29.678Z,16.70
2023-01-03T02:21:29.612Z,17.23
2023-01-03T02:24:15.599Z,20.65
2023-01-03T02:27:16.094Z,17.25
2023-01-03T02:30:17.667Z,15.50
2023-01-03T02:33:28.217Z,13.90
2023-01-03T02:36:26.716Z,14.10
2023-01-03T02:39:13.473Z,12.95
2023-01-03T02:41:58.806Z,19.32
2023-01-03T02:44:35.661Z,12.70
2023-01-03T02:47:11.716Z,10.98
2023-01-03T02:49:53.149Z,13.28
2023-01-03T02:52:28.751Z,12.07
2023-01-03T02:55:24.254Z,15.13
2023-01-03T02:58:11.027Z,18.27
2023-01-03T03:00:48.938Z,12.28
2023-01-03T03:03:25.992Z,9.93
2023-01-03T03:06:06.129Z,11.75
2023-01-03T03:08:39.541Z,11.08
2023-01-03T03:11:31.291Z,10.08
2023-01-03T03:14:20.583Z,10.85
2023-01-03T03:16:56.538Z,10.50
2023-01-03T03:19:53.517Z,11.10
2023-01-03T03:23:06.727Z,10.38
2023-01-03T03:25:50.433Z,13.58
2023-01-03T03:28:37.119Z,15.15
2023-01-03T03:31:20.286Z,10.98
2023-01-03T03:34:09.720Z,12.40
2023-01-03T03:37:01.889Z,12.85
2023-01-03T03:39:53.627Z,15.95
2023-01-03T03:43:06.596Z,11.48
2023-01-03T03:45:56.790Z,13.95
2023-01-03T03:48:38.672Z,13.88
2023-01-03T03:51:15.459Z,11.88
2023-01-03T03:53:49.019Z,12.35
2023-01-03T03:56:26.064Z,10.60
2023-01-03T03:59:02.667Z,13.53
2023-01-03T04:01:38.259Z,11.83
2023-01-03T04:04:21.442Z,11.50
2023-01-03T04:06:55.112Z,11.97
2023-01-03T04:09:27.874Z,14.87
2023-01-03T04:12:00.964Z,16.15
2023-01-03T04:14:34.032Z,10.90
2023-01-03T04:17:06.836Z,13.60
2023-01-03T04:19:39.985Z,16.02
2023-01-03T04:22:12.835Z,10.60
2023-01-03T04:24:45.484Z,11.60
2023-01-03T04:27:18.435Z,13.68
2023-01-03T04:29:51.345Z,18.73
2023-01-03T04:32:24.375Z,13.48
2023-01-03T04:34:57.054Z,11.25
2023-01-03T04:37:32.095Z,12.30
2023-01-03T04:40:05.049Z,13.25
2023-01-03T04:42:55.959Z,14.55
2023-01-03T04:45:28.967Z,13.43
2023-01-03T04:48:02.337Z,13.20
2023-01-03T04:50:35.564Z,9.80
2023-01-03T04:53:09.227Z,17.10
2023-01-03T04:55:48.374Z,13.35
2023-01-03T04:58:22.147Z,15.35
2023-01-03T05:01:07.749Z,14.68
2023-01-03T05:03:41.177Z,12.43
2023-01-03T05:06:14.729Z,16.57
2023-01-03T05:08:49.113Z,14.75
2023-01-03T05:11:22.157Z,20.05
2023-01-03T05:13:54.992Z,16.65
2023-01-03T05:16:28.285Z,18.40
2023-01-03T05:19:01.017Z,17.05
2023-01-03T05:21:51.925Z,20.88
2023-01-03T05:24:42.546Z,19.98
2023-01-03T05:27:15.358Z,18.23
2023-01-03T05:29:51.997Z,16.57
2023-01-03T05:32:25.329Z,19.30
2023-01-03T05:34:59.617Z,19.48
2023-01-03T05:37:32.321Z,22.60
2023-01-03T05:40:06.303Z,24.75
2023-01-03T05:42:40.959Z,22.58
2023-01-03T05:45:13.912Z,24.55
2023-01-03T05:47:47.010Z,26.17
2023-01-03T05:50:19.914Z,20.27
2023-01-03T05:52:53.087Z,22.95
2023-01-03T05:55:26.892Z,24.20
2023-01-03T05:57:59.896Z,24.47
2023-01-03T06:00:33.204Z,24.10
2023-01-03T06:03:06.124Z,27.13
2023-01-03T06:05:44.568Z,24.52
2023-01-03T06:08:14.257Z,25.95
2023-01-03T06:10:48.770Z,24.45
2023-01-03T06:13:24.010Z,23.20
2023-01-03T06:16:14.496Z,23.90
2023-01-03T06:18:47.570Z,24.85
2023-01-03T06:21:21.030Z,23.42
2023-01-03T06:23:53.996Z,20.12
2023-01-03T06:26:27.819Z,20.30
2023-01-03T06:31:34.464Z,20.57
2023-01-03T06:36:41.398Z,22.48
2023-01-03T06:39:14.067Z,20.10
2023-01-03T06:41:46.796Z,22.25
2023-01-03T06:44:20.106Z,22.00
2023-01-03T06:46:54.469Z,22.67
2023-01-03T06:49:47.717Z,22.10
2023-01-03T06:52:38.136Z,20.70
2023-01-03T06:55:10.829Z,20.43
2023-01-03T06:57:43.727Z,25.85
2023-01-03T07:00:17.292Z,22.87
2023-01-03T07:02:50.215Z,24.23
2023-01-03T07:05:23.215Z,20.02
2023-01-03T07:07:57.070Z,21.85
2023-01-03T07:10:29.993Z,21.25
2023-01-03T07:13:21.263Z,20.05
2023-01-03T07:15:55.086Z,21.97
2023-01-03T07:18:28.611Z,23.55
2023-01-03T07:21:01.219Z,23.27
2023-01-03T07:23:34.388Z,20.92
2023-01-03T07:26:07.616Z,19.90
2023-01-03T07:28:41.015Z,22.30
2023-01-03T07:31:13.967Z,25.57
2023-01-03T07:33:47.296Z,22.37
2023-01-03T07:36:21.208Z,23.20
2023-01-03T07:38:56.379Z,23.65
2023-01-03T07:41:30.762Z,22.93
2023-01-03T07:44:03.643Z,22.32
2023-01-03T07:46:36.590Z,23.83
2023-01-03T07:49:11.916Z,23.30
2023-01-03T07:51:45.266Z,25.17
2023-01-03T07:54:18.416Z,23.60
2023-01-03T07:56:51.093Z,27.60
2023-01-03T07:59:24.548Z,22.23
2023-01-03T08:01:57.310Z,23.55
2023-01-03T08:04:30.482Z,22.67
2023-01-03T08:07:03.381Z,22.67
2023-01-03T08:09:54.793Z,23.90
2023-01-03T08:12:45.627Z,22.87
2023-01-03T08:15:18.558Z,23.25
2023-01-03T08:17:51.393Z,26.45
2023-01-03T08:20:24.962Z,26.40
2023-01-03T08:22:59.328Z,24.02
2023-01-03T08:25:35.121Z,26.60
2023-01-03T08:28:11.536Z,22.13
2023-01-03T08:30:49.938Z,24.23
2023-01-03T08:33:23.169Z,25.27
2023-01-03T08:35:59.697Z,24.45
2023-01-03T08:38:40.156Z,22.00
2023-01-03T08:41:15.012Z,23.50
2023-01-03T08:43:49.297Z,21.33
2023-01-03T08:46:23.203Z,23.92
2023-01-03T08:48:56.999Z,21.87
2023-01-03T08:51:30.314Z,21.37
2023-01-03T08:54:02.994Z,25.40
2023-01-03T08:56:36.233Z,22.25
2023-01-03T08:59:09.190Z,23.98
2023-01-03T09:01:42.273Z,22.80
2023-01-03T09:04:15.265Z,23.07
2023-01-03T09:06:48.209Z,20.57
2023-01-03T09:09:21.168Z,23.55
2023-01-03T09:11:54.505Z,20.97
2023-01-03T09:14:27.510Z,19.55
2023-01-03T09:17:00.582Z,19.75
2023-01-03T09:19:34.075Z,20.20
2023-01-03T09:22:07.082Z,22.67
2023-01-03T09:24:39.959Z,21.00
2023-01-03T09:27:13.223Z,20.40
2023-01-03T09:29:47.054Z,18.80
2023-01-03T09:32:20.011Z,18.97
2023-01-03T09:34:52.975Z,20.60
2023-01-03T09:37:26.577Z,18.57
2023-01-03T09:39:59.295Z,20.48
2023-01-03T09:42:51.000Z,18.70
2023-01-03T09:45:33.112Z,19.55
2023-01-03T09:48:07.707Z,17.62
2023-01-03T09:53:42.599Z,17.65
2023-01-03T09:56:33.462Z,18.85
2023-01-03T09:59:36.298Z,17.73
2023-01-03T10:02:54.333Z,19.27
2023-01-03T10:05:44.156Z,19.95
2023-01-03T10:08:33.600Z,18.48
2023-01-03T10:11:32.527Z,20.95
2023-01-03T10:14:12.583Z,17.10
2023-01-03T10:17:01.956Z,16.97
2023-01-03T10:20:05.432Z,18.55
2023-01-03T10:22:38.806Z,18.73
2023-01-03T10:25:15.979Z,18.80
2023-01-03T10:27:52.533Z,16.42
2023-01-03T10:31:08.322Z,17.35
2023-01-03T10:33:50.690Z,18.25
2023-01-03T10:36:24.530Z,16.37
2023-01-03T10:39:10.864Z,16.93
2023-01-03T10:41:48.757Z,16.80
2023-01-03T10:44:31.267Z,16.52
2023-01-03T10:47:16.971Z,15.13
2023-01-03T10:49:51.455Z,14.68
2023-01-03T10:52:24.209Z,14.93
2023-01-03T10:55:07.631Z,14.35
2023-01-03T10:57:58.057Z,14.43
2023-01-03T11:00:40.927Z,14.13
2023-01-03T11:03:18.868Z,13.00
2023-01-03T11:06:08.768Z,12.05
2023-01-03T11:08:50.309Z,10.72
2023-01-03T11:11:33.037Z,13.38
2023-01-03T11:14:28.466Z,11.63
2023-01-03T11:17:06.759Z,10.20
2023-01-03T11:19:41.430Z,13.83
2023-01-03T11:22:46.016Z,9.65
2023-01-03T11:25:44.154Z,10.55
2023-01-03T11:28:33.119Z,12.47
2023-01-03T11:31:33.427Z,13.15
2023-01-03T11:35:11.461Z,11.63
2023-01-03T11:37:50.391Z,9.83
2023-01-03T11:40:52.208Z,9.43
2023-01-03T11:43:38.581Z,13.28
2023-01-03T11:46:40.504Z,10.90
2023-01-03T11:49:29.999Z,10.98
2023-01-03T11:52:10.442Z,9.18
2023-01-03T11:55:09.031Z,10.05
2023-01-03T11:58:02.681Z,10.60
2023-01-03T12:00:51.490Z,11.18
2023-01-03T12:03:50.336Z,8.45
2023-01-03T12:07:45.313Z,9.88
2023-01-03T12:10:03.588Z,10.13
2023-01-03T12:13:02.801Z,9.50
2023-01-03T12:15:53.525Z,8.88
2023-01-03T12:18:58.223Z,9.53
2023-01-03T12:21:40.537Z,10.45
2023-01-03T12:24:41.541Z,9.33
2023-01-03T12:27:32.927Z,10.95
2023-01-03T12:30:19.329Z,9.30
2023-01-03T12:32:58.475Z,11.12
2023-01-03T12:35:54.168Z,10.63
2023-01-03T12:38:34.555Z,11.12
2023-01-03T12:41:29.890Z,9.45
2023-01-03T12:44:26.596Z,11.25
2023-01-03T12:47:03.290Z,9.40
2023-01-03T12:49:44.692Z,8.93
2023-01-03T12:52:18.849Z,10.55
2023-01-03T12:54:59.164Z,9.53
2023-01-03T12:57:56.156Z,10.13
2023-01-03T13:00:52.759Z,10.48
2023-01-03T13:03:53.600Z,9.28
2023-01-03T13:06:39.651Z,9.30
2023-01-03T13:09:23.270Z,10.95
2023-01-03T13:11:58.584Z,8.60
2023-01-03T13:14:33.555Z,10.23
2023-01-03T13:17:19.360Z,9.78
2023-01-03T13:20:03.088Z,12.85
2023-01-03T13:23:00.135Z,8.90
2023-01-03T13:25:45.072Z,10.40
2023-01-03T13:28:25.793Z,11.12
2023-01-03T13:31:24.011Z,11.28
2023-01-03T13:33:59.112Z,8.58
2023-01-03T13:36:56.377Z,11.68
2023-01-03T13:39:52.981Z,10.85
2023-01-03T13:42:33.138Z,10.20
2023-01-03T13:45:29.022Z,10.75
2023-01-03T13:48:17.485Z,10.82
2023-01-03T13:51:19.516Z,9.73
2023-01-03T13:54:06.220Z,10.93
2023-01-03T13:56:52.893Z,12.88
2023-01-03T13:59:35.928Z,9.48
2023-01-03T14:02:39.464Z,10.32
2023-01-03T14:05:32.189Z,12.20
2023-01-03T14:08:18.478Z,10.53
2023-01-03T14:11:04.834Z,11.35
2023-01-03T14:13:54.900Z,14.53
2023-01-03T14:16:47.494Z,12.90
2023-01-03T14:19:37.878Z,11.15
2023-01-03T14:22:31.407Z,12.18
2023-01-03T14:25:00.951Z,10.00
2023-01-03T14:27:43.604Z,10.32
2023-01-03T14:30:26.393Z,13.35
2023-01-03T14:32:59.787Z,12.75
2023-01-03T14:35:42.904Z,14.65
2023-01-03T14:38:33.669Z,13.45
2023-01-03T14:41:06.730Z,17.12
2023-01-03T14:43:39.773Z,17.62
2023-01-03T14:46:14.026Z,15.40
2023-01-03T14:48:48.391Z,13.38
2023-01-03T14:51:21.493Z,12.98
2023-01-03T14:53:55.499Z,13.32
2023-01-03T14:59:00.790Z,14.20
2023-01-03T15:01:34.284Z,12.00
2023-01-03T15:04:07.704Z,13.10
2023-01-03T15:06:43.106Z,11.70
2023-01-03T15:09:22.739Z,11.83
2023-01-03T15:11:59.619Z,12.37
2023-01-03T15:14:40.237Z,15.85
2023-01-03T15:17:16.710Z,13.30
2023-01-03T15:19:55.281Z,14.07
2023-01-03T15:22:35.522Z,12.70
2023-01-03T15:25:22.331Z,12.63
2023-01-03T15:27:55.606Z,12.95
2023-01-03T15:30:29.866Z,14.43
2023-01-03T15:33:05.876Z,17.25
2023-01-03T15:35:43.637Z,13.45
2023-01-03T15:38:21.300Z,13.95
2023-01-03T15:40:54.422Z,12.13
2023-01-03T15:43:32.490Z,14.30
2023-01-03T15:46:15.165Z,13.08
2023-01-03T15:48:55.534Z,14.95
2023-01-03T15:51:28.696Z,15.63
2023-01-03T15:54:02.194Z,15.63
2023-01-03T15:56:37.635Z,16.35
2023-01-03T15:59:13.309Z,16.40
2023-01-03T16:01:46.166Z,18.30
2023-01-03T16:04:19.766Z,16.70
2023-01-03T16:06:53.626Z,17.73
2023-01-03T16:09:26.508Z,19.65
2023-01-03T16:12:00.453Z,17.57
2023-01-03T16:14:39.886Z,19.73
2023-01-03T16:17:22.606Z,18.17
2023-01-03T16:19:52.576Z,19.50
2023-01-03T16:22:35.383Z,20.10
2023-01-03T16:25:01.417Z,19.77
2023-01-03T16:27:34.559Z,23.10
2023-01-03T16:30:08.912Z,25.70
2023-01-03T16:32:42.612Z,22.25
2023-01-03T16:35:18.667Z,23.15
2023-01-03T16:37:51.326Z,23.35
2023-01-03T16:40:24.549Z,24.05
2023-01-03T16:42:57.784Z,24.50
2023-01-03T16:45:31.391Z,26.02
2023-01-03T16:48:05.702Z,27.32
2023-01-03T16:50:41.251Z,25.97
2023-01-03T16:53:30.593Z,32.05
2023-01-03T16:56:04.858Z,27.20
2023-01-03T16:58:38.246Z,33.08
2023-01-03T17:01:12.056Z,29.30
2023-01-03T17:03:45.033Z,29.37
2023-01-03T17:06:35.314Z,23.77
2023-01-03T17:09:07.176Z,27.10
2023-01-03T17:11:40.969Z,31.10
2023-01-03T17:14:18.881Z,28.42
2023-01-03T17:16:52.629Z,28.92
2023-01-03T17:20:02.750Z,36.73
2023-01-03T17:22:03.159Z,34.95
2023-01-03T17:24:36.334Z,39.45
2023-01-03T17:27:23.861Z,36.70
2023-01-03T17:30:01.969Z,37.23
2023-01-03T17:32:35.596Z,33.25
2023-01-03T17:35:12.014Z,41.95
2023-01-03T17:38:23.451Z,37.40
2023-01-03T17:40:33.330Z,38.40
2023-01-03T17:43:02.140Z,43.38
2023-01-03T17:45:53.517Z,39.08
2023-01-03T17:48:44.862Z,45.05
2023-01-03T17:51:17.864Z,41.00
2023-01-03T17:53:51.641Z,37.95
2023-01-03T17:56:24.496Z,37.60
2023-01-03T17:58:57.425Z,40.48
2023-01-03T18:01:30.350Z,50.83
2023-01-03T18:04:03.943Z,38.70
2023-01-03T18:06:38.676Z,46.73
2023-01-03T18:09:15.591Z,41.35
2023-01-03T18:11:48.802Z,46.90
2023-01-03T18:14:22.267Z,47.10
2023-01-03T18:16:56.272Z,45.50
2023-01-03T18:19:29.092Z,49.05
2023-01-03T18:22:01.940Z,53.90
2023-01-03T18:24:35.419Z,56.67
2023-01-03T18:27:09.539Z,39.18
2023-01-03T18:29:43.318Z,40.90
2023-01-03T18:32:31.461Z,43.92
2023-01-03T18:35:04.588Z,45.85
2023-01-03T18:37:38.764Z,51.63
2023-01-03T18:40:21.802Z,46.55
2023-01-03T18:43:10.401Z,53.80
2023-01-03T18:45:44.285Z,53.87
2023-01-03T18:48:23.229Z,50.00
2023-01-03T18:50:59.329Z,52.35
2023-01-03T18:53:32.613Z,57.88
2023-01-03T18:58:42.385Z,68.10
2023-01-03T19:01:15.281Z,49.60
2023-01-03T19:03:49.860Z,73.55
2023-01-03T19:06:28.977Z,67.03
2023-01-03T19:09:04.645Z,52.45
2023-01-03T19:11:39.605Z,54.53
2023-01-03T19:14:13.610Z,37.70
2023-01-03T19:16:48.576Z,43.98
2023-01-03T19:19:21.306Z,44.40
2023-01-03T19:21:54.128Z,47.08
2023-01-03T19:24:39.005Z,44.38
2023-01-03T19:27:24.316Z,52.83
2023-01-03T19:29:57.235Z,52.38
2023-01-03T19:32:31.116Z,46.75
2023-01-03T19:35:04.152Z,50.00
2023-01-03T19:37:37.362Z,47.85
2023-01-03T19:40:13.572Z,45.30
2023-01-03T19:42:53.329Z,34.35
2023-01-03T19:45:41.575Z,36.38
2023-01-03T19:48:22.273Z,40.10
2023-01-03T19:50:55.108Z,30.37
2023-01-03T19:53:28.199Z,37.53
2023-01-03T19:56:01.200Z,36.53
2023-01-03T19:58:37.809Z,34.80
2023-01-03T20:01:17.186Z,33.08
2023-01-03T20:03:50.934Z,38.02
2023-01-03T20:06:24.191Z,32.98
2023-01-03T20:08:57.061Z,37.30
2023-01-03T20:11:29.845Z,33.50
2023-01-03T20:14:03.921Z,32.33
2023-01-03T20:16:37.045Z,32.48
2023-01-03T20:19:23.687Z,36.28
2023-01-03T20:21:56.998Z,31.80
2023-01-03T20:24:31.404Z,30.35
2023-01-03T20:27:04.592Z,30.43
2023-01-03T20:32:12.070Z,27.62
2023-01-03T20:34:45.232Z,30.85
2023-01-03T20:37:20.297Z,28.07
2023-01-03T20:39:53.456Z,27.50
2023-01-03T20:42:26.323Z,24.10
2023-01-03T20:44:59.458Z,27.22
2023-01-03T20:47:32.589Z,28.87
2023-01-03T20:50:09.023Z,27.02
2023-01-03T20:52:42.047Z,30.15
2023-01-03T20:55:21.184Z,32.40
2023-01-03T20:57:54.122Z,31.93
2023-01-03T21:00:37.640Z,36.00
2023-01-03T21:03:10.950Z,28.62
2023-01-03T21:05:44.293Z,35.30
2023-01-03T21:08:36.583Z,31.87
2023-01-03T21:11:09.483Z,31.62
2023-01-03T21:13:42.494Z,29.25
2023-01-03T21:16:29.286Z,28.50
2023-01-03T21:19:20.792Z,31.05
2023-01-03T21:21:56.114Z,30.55
2023-01-03T21:24:29.668Z,30.08
2023-01-03T21:27:02.946Z,32.83
2023-01-03T21:29:35.615Z,30.80
2023-01-03T21:32:10.224Z,30.30
2023-01-03T21:34:43.304Z,30.70
2023-01-03T21:37:17.582Z,32.38
2023-01-03T21:39:50.958Z,34.48
2023-01-03T21:42:41.891Z,27.17
2023-01-03T21:45:16.703Z,34.53
2023-01-03T21:50:22.035Z,28.87
2023-01-03T21:52:55.487Z,29.48
2023-01-03T21:55:30.057Z,32.03
2023-01-03T21:58:03.432Z,33.42
2023-01-03T22:00:36.316Z,33.30
2023-01-03T22:03:31.997Z,35.48
2023-01-03T22:06:14.218Z,40.88
2023-01-03T22:08:47.133Z,38.63
2023-01-03T22:11:20.708Z,42.73
2023-01-03T22:13:59.126Z,48.67
2023-01-03T22:16:32.721Z,42.13
2023-01-03T22:19:06.569Z,38.65
2023-01-03T22:21:39.696Z,40.88
2023-01-03T22:24:12.582Z,37.65
2023-01-03T22:26:45.498Z,40.98
2023-01-03T22:29:18.327Z,44.48
2023-01-03T22:31:51.204Z,42.45
2023-01-03T22:34:24.201Z,33.63
2023-01-03T22:36:56.989Z,40.23
2023-01-03T22:39:29.896Z,35.52
2023-01-03T22:42:02.778Z,33.85
2023-01-03T22:44:35.623Z,36.98
2023-01-03T22:47:08.724Z,37.10
2023-01-03T22:49:42.701Z,36.88
2023-01-03T22:52:15.475Z,37.43
2023-01-03T22:54:48.530Z,40.67
2023-01-03T22:57:21.494Z,36.88
2023-01-03T22:59:54.265Z,41.00
2023-01-03T23:02:29.364Z,39.98
2023-01-03T23:05:01.931Z,34.48
2023-01-03T23:07:34.995Z,37.35
2023-01-03T23:10:09.712Z,39.78
2023-01-03T23:12:58.274Z,38.30
2023-01-03T23:15:33.385Z,43.92
2023-01-03T23:18:06.593Z,39.20
2023-01-03T23:20:40.925Z,43.48
2023-01-03T23:25:45.317Z,35.00
2023-01-03T23:28:18.257Z,40.92
2023-01-03T23:30:51.406Z,37.38
2023-01-03T23:33:24.927Z,39.53
2023-01-03T23:35:58.556Z,37.80
2023-01-03T23:38:31.334Z,40.55
2023-01-03T23:41:10.282Z,38.55
2023-01-03T23:43:43.114Z,34.80
2023-01-03T23:46:22.700Z,38.33
2023-01-03T23:48:59.360Z,39.67
2023-01-03T23:51:32.086Z,35.52
2023-01-03T23:54:04.872Z,39.15
2023-01-03T23:56:37.977Z,41.02
2023-01-03T23:59:10.801Z,37.63
